createdAt,value
2018-12-04T00:00:09.178Z,99531.96
2018-12-04T00:00:40.390Z,99529.40
2018-12-04T00:01:11.501Z,99530.23
2018-12-04T00:01:42.630Z,99531.08
2018-12-04T00:02:13.737Z,99531.52
2018-12-04T00:02:44.851Z,99531.96
2018-12-04T00:03:16.006Z,99531.52
2018-12-04T00:03:47.151Z,99526.38
2018-12-04T00:04:18.413Z,99531.89
2018-12-04T00:04:49.526Z,99528.94
2018-12-04T00:05:20.654Z,99528.89
2018-12-04T00:05:51.764Z,99522.91
2018-12-04T00:06:22.878Z,99522.46
2018-12-04T00:06:54.008Z,99523.73
2018-12-04T00:07:25.120Z,99519.89
2018-12-04T00:07:56.327Z,99517.72
2018-12-04T00:08:27.534Z,99516.88
2018-12-04T00:08:58.659Z,99521.13
2018-12-04T00:09:29.772Z,99512.98
2018-12-04T00:10:00.925Z,99513.42
2018-12-04T00:10:32.113Z,99512.52
2018-12-04T00:11:03.205Z,99507.37
2018-12-04T00:11:34.313Z,99508.61
2018-12-04T00:12:05.460Z,99510.76
2018-12-04T00:12:36.579Z,99509.86
2018-12-04T00:13:07.719Z,99509.86
2018-12-04T00:13:38.821Z,99510.64
2018-12-04T00:14:09.933Z,99510.63
2018-12-04T00:14:41.033Z,99511.00
2018-12-04T00:15:12.138Z,99510.56
2018-12-04T00:15:43.246Z,99513.11
2018-12-04T00:16:14.339Z,99512.22
2018-12-04T00:16:45.476Z,99515.61
2018-12-04T00:17:16.662Z,99513.02
2018-12-04T00:17:47.778Z,99509.62
2018-12-04T00:18:18.895Z,99516.86
2018-12-04T00:18:50.010Z,99512.97
2018-12-04T00:19:21.120Z,99516.42
2018-12-04T00:19:52.236Z,99515.60
2018-12-04T00:20:23.468Z,99514.77
2018-12-04T00:20:54.630Z,99514.77
2018-12-04T00:21:25.745Z,99510.47
2018-12-04T00:21:56.847Z,99513.94
2018-12-04T00:22:27.989Z,99512.64
2018-12-04T00:22:59.108Z,99521.61
2018-12-04T00:23:30.232Z,99515.60
2018-12-04T00:24:01.336Z,99516.48
2018-12-04T00:24:32.449Z,99516.48
2018-12-04T00:25:03.558Z,99521.16
2018-12-04T00:25:34.675Z,99524.11
2018-12-04T00:26:05.798Z,99520.28
2018-12-04T00:26:36.967Z,99521.11
2018-12-04T00:27:08.117Z,99520.25
2018-12-04T00:27:39.236Z,99518.97
2018-12-04T00:28:10.349Z,99518.52
2018-12-04T00:28:41.499Z,99524.09
2018-12-04T00:29:12.649Z,99523.71
2018-12-04T00:29:43.764Z,99523.66
2018-12-04T00:30:14.882Z,99523.71
2018-12-04T00:30:46.036Z,99520.66
2018-12-04T00:31:17.157Z,99524.05
2018-12-04T00:31:48.272Z,99523.13
2018-12-04T00:32:19.399Z,99520.11
2018-12-04T00:32:50.513Z,99523.47
2018-12-04T00:33:21.626Z,99522.14
2018-12-04T00:33:52.732Z,99516.98
2018-12-04T00:34:23.891Z,99520.47
2018-12-04T00:34:55.017Z,99518.80
2018-12-04T00:35:26.137Z,99521.39
2018-12-04T00:35:57.247Z,99516.70
2018-12-04T00:36:28.360Z,99516.68
2018-12-04T00:36:59.594Z,99515.80
2018-12-04T00:37:30.748Z,99516.27
2018-12-04T00:38:01.874Z,99515.42
2018-12-04T00:38:33.021Z,99516.68
2018-12-04T00:39:04.148Z,99516.23
2018-12-04T00:39:35.272Z,99514.52
2018-12-04T00:40:06.449Z,99506.83
2018-12-04T00:40:37.575Z,99507.66
2018-12-04T00:41:08.686Z,99511.05
2018-12-04T00:41:39.810Z,99510.61
2018-12-04T00:42:10.918Z,99511.89
2018-12-04T00:42:42.051Z,99506.77
2018-12-04T00:43:13.173Z,99510.13
2018-12-04T00:43:44.282Z,99511.42
2018-12-04T00:44:15.421Z,99512.23
2018-12-04T00:44:46.537Z,99508.38
2018-12-04T00:45:17.692Z,99509.66
2018-12-04T00:45:48.812Z,99510.06
2018-12-04T00:46:19.929Z,99504.03
2018-12-04T00:46:51.063Z,99511.70
2018-12-04T00:47:22.196Z,99511.68
2018-12-04T00:47:53.326Z,99504.77
2018-12-04T00:48:24.456Z,99506.93
2018-12-04T00:48:55.586Z,99509.94
2018-12-04T00:49:26.700Z,99513.34
2018-12-04T00:49:57.820Z,99511.69
2018-12-04T00:50:29.022Z,99509.58
2018-12-04T00:51:00.141Z,99510.86
2018-12-04T00:51:31.259Z,99511.30
2018-12-04T00:52:02.371Z,99513.86
2018-12-04T00:52:33.490Z,99510.02
2018-12-04T00:53:04.626Z,99513.05
2018-12-04T00:53:35.744Z,99513.89
2018-12-04T00:54:06.860Z,99515.17
2018-12-04T00:54:37.990Z,99509.16
2018-12-04T00:55:09.130Z,99509.16
2018-12-04T00:55:40.271Z,99511.33
2018-12-04T00:56:11.388Z,99513.45
2018-12-04T00:56:42.492Z,99508.77
2018-12-04T00:57:13.592Z,99504.09
2018-12-04T00:57:44.719Z,99240.42
2018-12-04T00:58:15.838Z,99508.38
2018-12-04T00:58:46.947Z,99513.07
2018-12-04T00:59:18.061Z,99512.22
2018-12-04T00:59:49.321Z,99505.37
2018-12-04T01:00:20.472Z,99505.82
2018-12-04T01:00:51.595Z,99509.24
2018-12-04T01:01:23.012Z,99507.13
2018-12-04T01:01:54.143Z,99503.73
2018-12-04T01:02:25.286Z,99505.02
2018-12-04T01:02:56.541Z,99507.55
2018-12-04T01:03:27.681Z,99508.83
2018-12-04T01:03:58.824Z,99507.48
2018-12-04T01:04:29.946Z,99501.91
2018-12-04T01:05:01.053Z,99507.42
2018-12-04T01:05:32.182Z,99504.44
2018-12-04T01:06:03.352Z,99503.16
2018-12-04T01:06:34.479Z,99504.39
2018-12-04T01:07:05.602Z,99503.11
2018-12-04T01:07:36.727Z,99503.53
2018-12-04T01:08:08.063Z,99503.03
2018-12-04T01:08:39.179Z,99506.01
2018-12-04T01:09:10.296Z,99507.67
2018-12-04T01:09:41.445Z,99506.37
2018-12-04T01:10:12.555Z,99506.37
2018-12-04T01:10:43.664Z,99506.84
2018-12-04T01:11:14.821Z,99505.59
2018-12-04T01:11:45.952Z,99502.62
2018-12-04T01:12:17.092Z,99503.48
2018-12-04T01:12:48.217Z,99507.77
2018-12-04T01:13:19.330Z,99509.88
2018-12-04T01:13:50.444Z,99504.72
2018-12-04T01:14:21.562Z,99500.38
2018-12-04T01:14:52.698Z,99505.50
2018-12-04T01:15:23.940Z,99505.95
2018-12-04T01:15:55.091Z,99502.08
2018-12-04T01:16:26.855Z,99499.97
2018-12-04T01:16:58.070Z,99502.08
2018-12-04T01:17:29.190Z,99505.03
2018-12-04T01:18:00.346Z,99506.31
2018-12-04T01:18:31.471Z,99504.64
2018-12-04T01:19:02.589Z,99502.02
2018-12-04T01:19:33.749Z,99501.56
2018-12-04T01:20:04.877Z,99505.37
2018-12-04T01:20:35.992Z,99499.01
2018-12-04T01:21:07.101Z,99499.44
2018-12-04T01:21:38.225Z,99498.16
2018-12-04T01:22:09.362Z,99502.02
2018-12-04T01:22:40.518Z,99498.98
2018-12-04T01:23:11.633Z,99499.36
2018-12-04T01:23:42.776Z,99499.41
2018-12-04T01:24:13.907Z,99495.59
2018-12-04T01:24:45.041Z,99498.99
2018-12-04T01:25:16.178Z,99497.27
2018-12-04T01:25:47.310Z,99494.69
2018-12-04T01:26:18.441Z,99497.67
2018-12-04T01:26:49.548Z,99500.23
2018-12-04T01:27:20.662Z,99501.06
2018-12-04T01:27:51.847Z,99500.61
2018-12-04T01:28:22.962Z,99498.45
2018-12-04T01:28:54.089Z,99501.00
2018-12-04T01:29:25.189Z,99498.87
2018-12-04T01:29:56.299Z,99497.61
2018-12-04T01:30:27.409Z,99504.00
2018-12-04T01:30:58.513Z,99501.89
2018-12-04T01:31:29.644Z,99504.45
2018-12-04T01:32:00.773Z,99497.63
2018-12-04T01:32:31.885Z,99500.23
2018-12-04T01:33:03.041Z,99497.67
2018-12-04T01:33:34.163Z,99498.50
2018-12-04T01:34:05.274Z,99494.22
2018-12-04T01:34:36.388Z,99494.59
2018-12-04T01:35:07.516Z,99498.87
2018-12-04T01:35:38.664Z,99495.02
2018-12-04T01:36:09.818Z,99495.40
2018-12-04T01:36:40.945Z,99500.45
2018-12-04T01:37:12.072Z,99494.41
2018-12-04T01:37:43.228Z,99496.97
2018-12-04T01:38:14.341Z,99486.73
2018-12-04T01:38:45.462Z,99498.30
2018-12-04T01:39:16.606Z,99493.18
2018-12-04T01:39:47.726Z,99491.40
2018-12-04T01:40:18.836Z,99494.83
2018-12-04T01:40:49.959Z,99487.15
2018-12-04T01:41:21.160Z,99492.27
2018-12-04T01:41:53.073Z,99489.70
2018-12-04T01:42:24.792Z,99487.98
2018-12-04T01:42:55.908Z,99486.25
2018-12-04T01:43:27.351Z,99489.26
2018-12-04T01:43:58.515Z,99483.69
2018-12-04T01:44:29.631Z,99480.30
2018-12-04T01:45:00.735Z,99484.59
2018-12-04T01:45:32.157Z,99482.87
2018-12-04T01:46:03.319Z,99478.61
2018-12-04T01:46:34.683Z,99482.89
2018-12-04T01:47:05.785Z,99484.63
2018-12-04T01:47:36.897Z,99480.38
2018-12-04T01:48:08.012Z,99479.12
2018-12-04T01:48:39.137Z,99479.13
2018-12-04T01:49:10.255Z,99476.14
2018-12-04T01:49:41.367Z,99472.30
2018-12-04T01:50:12.482Z,99471.44
2018-12-04T01:50:43.762Z,99145.91
2018-12-04T01:51:14.889Z,99478.23
2018-12-04T01:51:46.005Z,99473.16
2018-12-04T01:52:17.124Z,99475.30
2018-12-04T01:52:48.278Z,99475.30
2018-12-04T01:53:19.406Z,99475.75
2018-12-04T01:53:50.527Z,99471.92
2018-12-04T01:54:21.658Z,99470.64
2018-12-04T01:54:52.781Z,99473.16
2018-12-04T01:55:23.913Z,99467.59
2018-12-04T01:55:55.069Z,99471.89
2018-12-04T01:56:26.183Z,99464.62
2018-12-04T01:56:57.376Z,99467.64
2018-12-04T01:57:28.494Z,99466.42
2018-12-04T01:57:59.656Z,99473.67
2018-12-04T01:58:30.784Z,99465.16
2018-12-04T01:59:01.883Z,99470.73
2018-12-04T01:59:33.008Z,99462.62
2018-12-04T02:00:04.122Z,99461.83
2018-12-04T02:00:35.253Z,99459.68
2018-12-04T02:01:06.405Z,99460.58
2018-12-04T02:01:37.528Z,99461.47
2018-12-04T02:02:08.640Z,99461.48
2018-12-04T02:02:39.758Z,99464.07
2018-12-04T02:03:10.875Z,99456.83
2018-12-04T02:03:41.996Z,99457.66
2018-12-04T02:04:13.157Z,99457.74
2018-12-04T02:04:44.273Z,99454.34
2018-12-04T02:05:15.393Z,99457.36
2018-12-04T02:05:46.514Z,99457.80
2018-12-04T02:06:17.680Z,99455.66
2018-12-04T02:06:48.833Z,99456.10
2018-12-04T02:07:19.949Z,99458.67
2018-12-04T02:07:51.113Z,99453.15
2018-12-04T02:08:22.539Z,99450.61
2018-12-04T02:08:53.660Z,99452.34
2018-12-04T02:09:24.790Z,99447.22
2018-12-04T02:09:55.949Z,99449.84
2018-12-04T02:10:27.066Z,99447.29
2018-12-04T02:10:58.221Z,99453.30
2018-12-04T02:11:29.334Z,99452.03
2018-12-04T02:12:00.456Z,99446.48
2018-12-04T02:12:31.569Z,99446.08
2018-12-04T02:13:02.682Z,99449.05
2018-12-04T02:13:33.792Z,99452.50
2018-12-04T02:14:04.906Z,99449.50
2018-12-04T02:14:36.067Z,99449.12
2018-12-04T02:15:07.949Z,99454.70
2018-12-04T02:15:39.084Z,99449.56
2018-12-04T02:16:10.214Z,99452.58
2018-12-04T02:16:41.325Z,99454.70
2018-12-04T02:17:12.454Z,99453.02
2018-12-04T02:17:43.560Z,99450.48
2018-12-04T02:18:14.682Z,99450.08
2018-12-04T02:18:45.806Z,99446.23
2018-12-04T02:19:16.923Z,99448.34
2018-12-04T02:19:48.062Z,99451.75
2018-12-04T02:20:19.170Z,99450.92
2018-12-04T02:20:50.295Z,99451.31
2018-12-04T02:21:21.452Z,99451.36
2018-12-04T02:21:52.564Z,99451.30
2018-12-04T02:22:23.678Z,99442.72
2018-12-04T02:22:54.785Z,99445.28
2018-12-04T02:23:25.900Z,99449.59
2018-12-04T02:23:57.016Z,99447.91
2018-12-04T02:24:28.153Z,99447.91
2018-12-04T02:24:59.277Z,99447.84
2018-12-04T02:25:30.432Z,99448.22
2018-12-04T02:26:01.753Z,99441.81
2018-12-04T02:26:32.956Z,99440.53
2018-12-04T02:27:04.064Z,99442.65
2018-12-04T02:27:35.216Z,99442.26
2018-12-04T02:28:06.340Z,99440.59
2018-12-04T02:28:37.463Z,99440.16
2018-12-04T02:29:08.610Z,99437.64
2018-12-04T02:29:39.732Z,99434.65
2018-12-04T02:30:10.865Z,99436.37
2018-12-04T02:30:41.988Z,99436.83
2018-12-04T02:31:13.145Z,99443.25
2018-12-04T02:31:44.265Z,99434.28
2018-12-04T02:32:15.377Z,99437.28
2018-12-04T02:32:46.532Z,99437.28
2018-12-04T02:33:17.649Z,99439.86
2018-12-04T02:33:48.765Z,99440.30
2018-12-04T02:34:19.884Z,99433.45
2018-12-04T02:34:51.062Z,99433.45
2018-12-04T02:35:22.184Z,99434.73
2018-12-04T02:35:53.303Z,99430.90
2018-12-04T02:36:24.429Z,99433.91
2018-12-04T02:36:55.534Z,99436.92
2018-12-04T02:37:26.661Z,99431.80
2018-12-04T02:37:57.767Z,99434.41
2018-12-04T02:38:28.889Z,99437.83
2018-12-04T02:39:00.019Z,99425.00
2018-12-04T02:39:31.154Z,99429.69
2018-12-04T02:40:02.312Z,99430.13
2018-12-04T02:40:33.439Z,99424.56
2018-12-04T02:41:04.565Z,99420.61
2018-12-04T02:41:35.682Z,99423.17
2018-12-04T02:42:06.802Z,99426.20
2018-12-04T02:42:38.007Z,99423.20
2018-12-04T02:43:09.136Z,99421.91
2018-12-04T02:43:40.261Z,99424.92
2018-12-04T02:44:11.586Z,99422.36
2018-12-04T02:44:42.706Z,99425.31
2018-12-04T02:45:13.835Z,99425.75
2018-12-04T02:45:44.954Z,99418.90
2018-12-04T02:46:16.079Z,99421.45
2018-12-04T02:46:47.209Z,99423.11
2018-12-04T02:47:18.329Z,99423.17
2018-12-04T02:47:49.483Z,99421.45
2018-12-04T02:48:20.635Z,99420.17
2018-12-04T02:48:51.744Z,99427.85
2018-12-04T02:49:22.851Z,99423.58
2018-12-04T02:49:53.975Z,99421.89
2018-12-04T02:50:25.138Z,99419.73
2018-12-04T02:50:56.272Z,99420.61
2018-12-04T02:51:27.384Z,99416.77
2018-12-04T02:51:58.502Z,99415.89
2018-12-04T02:52:29.643Z,99419.33
2018-12-04T02:53:00.797Z,99418.91
2018-12-04T02:53:31.942Z,99419.36
2018-12-04T02:54:03.049Z,99414.67
2018-12-04T02:54:34.157Z,99417.69
2018-12-04T02:55:05.278Z,99416.42
2018-12-04T02:55:36.435Z,99411.73
2018-12-04T02:56:07.569Z,99417.31
2018-12-04T02:56:38.721Z,99415.20
2018-12-04T02:57:09.877Z,99415.20
2018-12-04T02:57:40.972Z,99414.37
2018-12-04T02:58:12.090Z,99419.52
2018-12-04T02:58:43.187Z,99412.27
2018-12-04T02:59:14.297Z,99417.00
2018-12-04T02:59:45.439Z,99418.23
2018-12-04T03:00:16.550Z,99414.39
2018-12-04T03:00:47.659Z,99417.00
2018-12-04T03:01:18.773Z,99417.00
2018-12-04T03:01:49.942Z,99417.00
2018-12-04T03:02:21.065Z,99419.13
2018-12-04T03:02:52.176Z,99415.27
2018-12-04T03:03:23.331Z,99418.28
2018-12-04T03:03:54.455Z,99419.13
2018-12-04T03:04:25.610Z,99422.14
2018-12-04T03:04:56.724Z,99419.17
2018-12-04T03:05:27.836Z,99417.02
2018-12-04T03:05:58.947Z,99419.58
2018-12-04T03:06:30.063Z,99420.03
2018-12-04T03:07:01.190Z,99416.63
2018-12-04T03:07:32.319Z,99416.63
2018-12-04T03:08:03.428Z,99416.64
2018-12-04T03:08:34.538Z,99417.91
2018-12-04T03:09:05.663Z,99420.91
2018-12-04T03:09:36.800Z,99407.59
2018-12-04T03:10:07.962Z,99416.63
2018-12-04T03:10:39.066Z,99420.91
2018-12-04T03:11:10.178Z,99420.91
2018-12-04T03:11:41.296Z,99408.93
2018-12-04T03:12:12.405Z,99421.36
2018-12-04T03:12:43.555Z,99420.08
2018-12-04T03:13:14.660Z,99420.08
2018-12-04T03:13:45.765Z,99418.80
2018-12-04T03:14:16.893Z,99420.48
2018-12-04T03:14:48.056Z,99415.79
2018-12-04T03:15:19.167Z,99420.09
2018-12-04T03:15:50.271Z,99409.83
2018-12-04T03:16:21.376Z,99414.97
2018-12-04T03:16:52.479Z,99416.64
2018-12-04T03:17:23.597Z,99414.52
2018-12-04T03:17:54.709Z,99410.61
2018-12-04T03:18:25.826Z,99420.08
2018-12-04T03:18:56.941Z,99419.18
2018-12-04T03:19:28.086Z,99425.59
2018-12-04T03:19:59.271Z,99423.42
2018-12-04T03:20:30.382Z,99420.87
2018-12-04T03:21:01.497Z,99424.30
2018-12-04T03:21:32.597Z,99422.58
2018-12-04T03:22:03.699Z,99417.45
2018-12-04T03:22:34.836Z,99416.95
2018-12-04T03:23:05.944Z,99416.11
2018-12-04T03:23:37.071Z,99420.84
2018-12-04T03:24:08.188Z,99418.28
2018-12-04T03:24:39.344Z,99409.76
2018-12-04T03:25:10.458Z,99414.05
2018-12-04T03:25:41.569Z,99415.33
2018-12-04T03:26:12.669Z,99421.73
2018-12-04T03:26:43.841Z,99418.30
2018-12-04T03:27:14.958Z,99417.02
2018-12-04T03:27:46.075Z,99415.33
2018-12-04T03:28:17.194Z,99416.16
2018-12-04T03:28:48.311Z,99418.23
2018-12-04T03:29:19.431Z,99416.94
2018-12-04T03:29:50.556Z,99427.58
2018-12-04T03:30:21.731Z,99420.72
2018-12-04T03:30:52.958Z,99417.30
2018-12-04T03:31:24.233Z,99422.00
2018-12-04T03:31:55.379Z,99425.39
2018-12-04T03:32:26.670Z,99421.53
2018-12-04T03:32:57.800Z,99426.65
2018-12-04T03:33:28.943Z,99422.34
2018-12-04T03:34:00.075Z,99415.00
2018-12-04T03:34:31.202Z,99420.54
2018-12-04T03:35:02.375Z,99420.47
2018-12-04T03:35:33.491Z,99414.45
2018-12-04T03:36:04.607Z,99422.56
2018-12-04T03:36:35.735Z,99420.39
2018-12-04T03:37:06.852Z,99418.21
2018-12-04T03:37:38.290Z,99417.77
2018-12-04T03:38:09.415Z,99420.33
2018-12-04T03:38:40.525Z,99420.30
2018-12-04T03:39:11.636Z,99416.47
2018-12-04T03:39:42.758Z,99415.59
2018-12-04T03:40:13.923Z,99418.19
2018-12-04T03:40:45.037Z,99421.98
2018-12-04T03:41:16.161Z,99416.47
2018-12-04T03:41:47.260Z,99417.30
2018-12-04T03:42:18.376Z,99421.98
2018-12-04T03:42:49.498Z,99419.80
2018-12-04T03:43:20.611Z,99424.52
2018-12-04T03:43:51.732Z,99426.20
2018-12-04T03:44:22.857Z,99416.78
2018-12-04T03:44:54.080Z,99419.78
2018-12-04T03:45:25.242Z,99421.45
2018-12-04T03:45:57.530Z,99424.45
2018-12-04T03:46:28.655Z,99426.19
2018-12-04T03:46:59.804Z,99423.63
2018-12-04T03:47:30.926Z,99425.73
2018-12-04T03:48:02.035Z,99430.02
2018-12-04T03:48:33.156Z,99427.85
2018-12-04T03:49:04.269Z,99428.66
2018-12-04T03:49:35.384Z,99435.51
2018-12-04T03:50:06.503Z,99401.50
2018-12-04T03:50:37.675Z,99427.32
2018-12-04T03:51:08.788Z,99430.77
2018-12-04T03:51:39.937Z,99432.05
2018-12-04T03:52:11.259Z,99429.87
2018-12-04T03:52:42.375Z,99435.88
2018-12-04T03:53:13.489Z,99428.60
2018-12-04T03:53:44.608Z,99430.75
2018-12-04T03:54:15.714Z,99429.49
2018-12-04T03:54:46.828Z,99435.45
2018-12-04T03:55:17.934Z,99435.88
2018-12-04T03:55:49.055Z,99426.84
2018-12-04T03:56:20.224Z,99434.55
2018-12-04T03:56:51.334Z,99435.88
2018-12-04T03:57:22.451Z,99432.03
2018-12-04T03:57:54.363Z,99431.15
2018-12-04T03:58:26.760Z,99434.59
2018-12-04T03:58:58.042Z,99430.75
2018-12-04T03:59:29.205Z,99435.88
2018-12-04T04:00:00.325Z,99432.86
2018-12-04T04:00:31.544Z,99437.11
2018-12-04T04:01:02.688Z,99438.81
2018-12-04T04:01:33.867Z,99439.20
2018-12-04T04:02:04.992Z,99441.34
2018-12-04T04:02:36.175Z,99437.92
2018-12-04T04:03:07.321Z,99437.08
2018-12-04T04:03:38.443Z,99438.79
2018-12-04T04:04:09.563Z,99436.19
2018-12-04T04:04:40.677Z,99441.30
2018-12-04T04:05:11.801Z,99437.90
2018-12-04T04:05:42.935Z,99440.45
2018-12-04T04:06:14.056Z,99434.45
2018-12-04T04:06:45.179Z,99441.67
2018-12-04T04:07:16.306Z,99436.98
2018-12-04T04:07:47.465Z,99438.26
2018-12-04T04:08:18.572Z,99439.11
2018-12-04T04:08:49.705Z,99433.59
2018-12-04T04:09:20.839Z,99440.84
2018-12-04T04:09:52.006Z,99438.73
2018-12-04T04:10:23.209Z,99439.17
2018-12-04T04:10:54.337Z,99431.02
2018-12-04T04:11:25.506Z,99439.12
2018-12-04T04:11:56.661Z,99437.00
2018-12-04T04:12:27.778Z,99439.56
2018-12-04T04:12:58.934Z,99442.14
2018-12-04T04:13:30.048Z,99432.33
2018-12-04T04:14:01.173Z,99435.34
2018-12-04T04:14:32.337Z,99294.30
2018-12-04T04:15:03.441Z,99438.74
2018-12-04T04:15:34.557Z,99437.92
2018-12-04T04:16:05.676Z,99440.07
2018-12-04T04:16:36.918Z,99443.84
2018-12-04T04:17:08.032Z,99439.12
2018-12-04T04:17:39.154Z,99435.27
2018-12-04T04:18:10.273Z,99437.81
2018-12-04T04:18:41.391Z,99437.73
2018-12-04T04:19:12.505Z,99437.26
2018-12-04T04:19:43.667Z,99435.09
2018-12-04T04:20:14.783Z,99439.76
2018-12-04T04:20:45.913Z,99438.91
2018-12-04T04:21:17.029Z,99432.87
2018-12-04T04:21:48.147Z,99435.36
2018-12-04T04:22:19.316Z,99440.45
2018-12-04T04:22:50.442Z,99436.14
2018-12-04T04:23:21.564Z,99436.50
2018-12-04T04:23:52.678Z,99437.32
2018-12-04T04:24:23.781Z,99437.27
2018-12-04T04:24:54.930Z,99439.81
2018-12-04T04:25:26.058Z,99438.14
2018-12-04T04:25:57.218Z,99436.42
2018-12-04T04:26:28.339Z,99437.26
2018-12-04T04:26:59.458Z,99440.27
2018-12-04T04:27:30.709Z,99437.26
2018-12-04T04:28:01.837Z,99441.97
2018-12-04T04:28:32.962Z,99439.81
2018-12-04T04:29:04.071Z,99434.70
2018-12-04T04:29:35.185Z,99441.99
2018-12-04T04:30:06.296Z,99437.32
2018-12-04T04:30:37.436Z,99433.90
2018-12-04T04:31:08.703Z,99431.75
2018-12-04T04:31:39.935Z,99432.14
2018-12-04T04:32:11.054Z,99434.68
2018-12-04T04:32:42.214Z,99430.83
2018-12-04T04:33:13.326Z,99435.95
2018-12-04T04:33:44.439Z,99432.94
2018-12-04T04:34:15.709Z,99426.93
2018-12-04T04:34:46.829Z,99431.66
2018-12-04T04:35:17.945Z,99433.84
2018-12-04T04:35:49.061Z,99435.06
2018-12-04T04:36:20.196Z,99431.59
2018-12-04T04:36:51.321Z,99432.92
2018-12-04T04:37:22.437Z,99431.20
2018-12-04T04:37:53.588Z,99432.49
2018-12-04T04:38:24.706Z,99436.80
2018-12-04T04:38:55.815Z,99433.44
2018-12-04T04:39:26.937Z,99436.04
2018-12-04T04:39:58.063Z,99437.32
2018-12-04T04:40:29.182Z,99434.80
2018-12-04T04:41:00.304Z,99438.70
2018-12-04T04:41:31.414Z,99434.86
2018-12-04T04:42:02.516Z,99437.41
2018-12-04T04:42:33.761Z,99441.28
2018-12-04T04:43:04.878Z,99440.47
2018-12-04T04:43:35.987Z,99439.20
2018-12-04T04:44:07.091Z,99440.08
2018-12-04T04:44:38.193Z,99436.32
2018-12-04T04:45:09.313Z,99440.19
2018-12-04T04:45:40.452Z,99437.66
2018-12-04T04:46:11.582Z,99437.66
2018-12-04T04:46:42.690Z,99436.00
2018-12-04T04:47:13.828Z,99436.87
2018-12-04T04:47:44.989Z,99433.88
2018-12-04T04:48:16.128Z,99437.75
2018-12-04T04:48:47.246Z,99434.38
2018-12-04T04:49:18.368Z,99434.81
2018-12-04T04:49:49.477Z,99434.00
2018-12-04T04:50:20.653Z,99433.61
2018-12-04T04:50:51.784Z,99433.62
2018-12-04T04:51:22.900Z,99433.67
2018-12-04T04:51:54.021Z,99425.98
2018-12-04T04:52:25.147Z,99430.68
2018-12-04T04:52:56.298Z,99429.83
2018-12-04T04:53:27.405Z,99430.66
2018-12-04T04:53:58.532Z,99429.38
2018-12-04T04:54:29.636Z,99428.12
2018-12-04T04:55:00.746Z,99427.28
2018-12-04T04:55:31.861Z,99423.00
2018-12-04T04:56:02.974Z,99424.28
2018-12-04T04:56:34.089Z,99425.98
2018-12-04T04:57:05.211Z,99423.43
2018-12-04T04:57:36.321Z,99422.16
2018-12-04T04:58:07.480Z,99421.72
2018-12-04T04:58:38.604Z,99423.02
2018-12-04T04:59:09.715Z,99423.45
2018-12-04T04:59:40.864Z,99422.64
2018-12-04T05:00:11.976Z,99418.36
2018-12-04T05:00:43.105Z,99423.09
2018-12-04T05:01:14.225Z,99422.69
2018-12-04T05:01:45.340Z,99420.13
2018-12-04T05:02:16.453Z,99418.42
2018-12-04T05:02:47.573Z,99417.98
2018-12-04T05:03:18.760Z,99417.14
2018-12-04T05:03:49.880Z,99419.71
2018-12-04T05:04:21.030Z,99416.30
2018-12-04T05:04:52.148Z,99415.86
2018-12-04T05:05:23.273Z,99422.70
2018-12-04T05:05:54.391Z,99418.42
2018-12-04T05:06:25.523Z,99415.39
2018-12-04T05:06:56.645Z,99420.08
2018-12-04T05:07:27.756Z,99419.64
2018-12-04T05:07:58.905Z,99423.45
2018-12-04T05:08:30.021Z,99426.46
2018-12-04T05:09:01.134Z,99421.73
2018-12-04T05:09:32.240Z,99419.99
2018-12-04T05:10:03.354Z,99424.66
2018-12-04T05:10:34.462Z,99419.10
2018-12-04T05:11:05.583Z,99419.97
2018-12-04T05:11:36.692Z,99418.64
2018-12-04T05:12:07.812Z,99418.61
2018-12-04T05:12:38.913Z,99422.85
2018-12-04T05:13:10.069Z,99420.34
2018-12-04T05:13:41.198Z,99417.78
2018-12-04T05:14:12.319Z,99420.34
2018-12-04T05:14:43.437Z,99418.61
2018-12-04T05:15:14.542Z,99416.44
2018-12-04T05:15:45.681Z,99418.16
2018-12-04T05:16:16.829Z,99424.12
2018-12-04T05:16:47.945Z,99418.16
2018-12-04T05:17:19.053Z,99418.16
2018-12-04T05:17:50.169Z,99420.30
2018-12-04T05:18:21.298Z,99419.02
2018-12-04T05:18:52.462Z,99418.60
2018-12-04T05:19:23.695Z,99424.12
2018-12-04T05:19:54.810Z,99421.99
2018-12-04T05:20:25.913Z,99421.09
2018-12-04T05:20:57.045Z,99422.35
2018-12-04T05:21:28.203Z,99426.59
2018-12-04T05:21:59.316Z,99418.47
2018-12-04T05:22:30.416Z,99421.47
2018-12-04T05:23:01.529Z,99419.36
2018-12-04T05:23:32.655Z,99418.95
2018-12-04T05:24:03.769Z,99422.37
2018-12-04T05:24:34.884Z,99415.97
2018-12-04T05:25:06.046Z,99422.37
2018-12-04T05:25:37.158Z,99424.09
2018-12-04T05:26:08.272Z,99412.13
2018-12-04T05:26:39.392Z,99421.98
2018-12-04T05:27:10.517Z,99426.23
2018-12-04T05:27:41.629Z,99420.70
2018-12-04T05:28:12.752Z,99415.99
2018-12-04T05:28:43.860Z,99419.00
2018-12-04T05:29:14.982Z,99421.99
2018-12-04T05:29:46.101Z,99419.83
2018-12-04T05:30:17.247Z,99419.45
2018-12-04T05:30:48.364Z,99415.63
2018-12-04T05:31:19.476Z,99420.37
2018-12-04T05:31:50.594Z,99422.54
2018-12-04T05:32:21.727Z,99420.88
2018-12-04T05:32:52.838Z,99419.17
2018-12-04T05:33:23.957Z,99414.50
2018-12-04T05:33:55.077Z,99421.34
2018-12-04T05:34:26.225Z,99419.64
2018-12-04T05:34:57.350Z,99421.83
2018-12-04T05:35:28.476Z,99417.58
2018-12-04T05:35:59.585Z,99415.42
2018-12-04T05:36:30.694Z,99418.86
2018-12-04T05:37:01.848Z,99414.14
2018-12-04T05:37:32.975Z,99417.16
2018-12-04T05:38:04.104Z,99417.62
2018-12-04T05:38:35.216Z,99413.41
2018-12-04T05:39:06.377Z,99419.41
2018-12-04T05:39:37.573Z,99416.47
2018-12-04T05:40:08.695Z,99417.70
2018-12-04T05:40:39.843Z,99414.73
2018-12-04T05:41:10.993Z,99415.13
2018-12-04T05:41:42.161Z,99415.97
2018-12-04T05:42:13.354Z,99414.30
2018-12-04T05:42:44.464Z,99417.30
2018-12-04T05:43:15.574Z,99416.02
2018-12-04T05:43:46.700Z,99417.75
2018-12-04T05:44:17.861Z,99420.30
2018-12-04T05:44:49.007Z,99423.31
2018-12-04T05:45:20.123Z,99423.72
2018-12-04T05:45:51.242Z,99426.28
2018-12-04T05:46:22.396Z,99420.75
2018-12-04T05:46:53.513Z,99421.22
2018-12-04T05:47:24.635Z,99425.08
2018-12-04T05:47:55.754Z,99419.58
2018-12-04T05:48:26.858Z,99426.05
2018-12-04T05:48:57.969Z,99427.36
2018-12-04T05:49:29.138Z,99424.80
2018-12-04T05:50:01.264Z,99429.98
2018-12-04T05:50:32.521Z,99426.58
2018-12-04T05:51:03.689Z,99425.30
2018-12-04T05:51:34.830Z,99429.99
2018-12-04T05:52:05.946Z,99434.28
2018-12-04T05:52:37.041Z,99434.73
2018-12-04T05:53:08.141Z,99436.45
2018-12-04T05:53:39.254Z,99432.19
2018-12-04T05:54:10.374Z,99435.19
2018-12-04T05:54:41.485Z,99440.36
2018-12-04T05:55:12.584Z,99435.63
2018-12-04T05:55:43.688Z,99442.92
2018-12-04T05:56:14.834Z,99440.76
2018-12-04T05:56:46.015Z,99441.20
2018-12-04T05:57:17.206Z,99441.65
2018-12-04T05:57:48.327Z,99440.37
2018-12-04T05:58:19.462Z,99442.50
2018-12-04T05:58:50.598Z,99440.82
2018-12-04T05:59:21.704Z,99439.55
2018-12-04T05:59:52.820Z,99442.11
2018-12-04T06:00:23.932Z,99441.28
2018-12-04T06:00:55.037Z,99441.22
2018-12-04T06:01:26.145Z,99447.30
2018-12-04T06:01:57.297Z,99438.73
2018-12-04T06:02:28.441Z,98980.55
2018-12-04T06:02:59.548Z,99444.80
2018-12-04T06:03:30.641Z,99449.11
2018-12-04T06:04:01.763Z,99449.12
2018-12-04T06:04:32.867Z,99449.12
2018-12-04T06:05:03.976Z,99454.69
2018-12-04T06:05:35.105Z,99456.38